createdAt,value
2018-11-29T00:00:29.494Z,24.67
2018-11-29T00:02:57.337Z,24.90
2018-11-29T00:05:24.913Z,25.63
2018-11-29T00:07:52.992Z,24.17
2018-11-29T00:10:20.774Z,25.33
2018-11-29T00:12:48.537Z,25.40
2018-11-29T00:15:16.432Z,27.53
2018-11-29T00:17:43.977Z,24.93
2018-11-29T00:20:14.652Z,23.97
2018-11-29T00:22:43.032Z,23.77
2018-11-29T00:25:11.607Z,22.50
2018-11-29T00:27:39.491Z,24.43
2018-11-29T00:30:15.802Z,23.60
2018-11-29T00:32:43.413Z,23.87
2018-11-29T00:35:12.763Z,23.77
2018-11-29T00:37:40.492Z,24.83
2018-11-29T00:40:16.068Z,23.50
2018-11-29T00:42:44.073Z,24.80
2018-11-29T00:45:13.887Z,24.50
2018-11-29T00:47:41.855Z,24.63
2018-11-29T00:50:11.584Z,22.80
2018-11-29T00:52:39.890Z,23.70
2018-11-29T00:55:08.853Z,24.40
2018-11-29T00:57:36.849Z,24.70
2018-11-29T01:00:07.153Z,23.90
2018-11-29T01:02:36.110Z,23.67
2018-11-29T01:05:03.732Z,22.93
2018-11-29T01:07:31.497Z,23.73
2018-11-29T01:09:59.032Z,23.43
2018-11-29T01:12:26.511Z,24.10
2018-11-29T01:14:54.262Z,22.67
2018-11-29T01:17:21.830Z,22.10
2018-11-29T01:19:49.358Z,22.73
2018-11-29T01:22:17.043Z,24.33
2018-11-29T01:24:45.258Z,23.83
2018-11-29T01:27:12.790Z,22.70
2018-11-29T01:29:41.274Z,23.73
2018-11-29T01:32:08.922Z,24.43
2018-11-29T01:34:37.158Z,25.50
2018-11-29T01:37:04.819Z,21.70
2018-11-29T01:39:32.312Z,23.93
2018-11-29T01:41:59.877Z,22.13
2018-11-29T01:44:27.599Z,23.43
2018-11-29T01:46:55.094Z,23.60
2018-11-29T01:49:22.821Z,22.63
2018-11-29T01:51:50.337Z,22.03
2018-11-29T01:54:17.881Z,23.03
2018-11-29T01:56:45.408Z,23.97
2018-11-29T01:59:13.358Z,23.80
2018-11-29T02:01:40.887Z,23.33
2018-11-29T02:04:08.639Z,24.20
2018-11-29T02:06:36.192Z,23.97
2018-11-29T02:09:05.787Z,26.67
2018-11-29T02:11:35.277Z,21.37
2018-11-29T02:14:02.786Z,22.60
2018-11-29T02:16:30.359Z,24.23
2018-11-29T02:18:58.041Z,22.00
2018-11-29T02:21:25.996Z,22.87
2018-11-29T02:23:53.528Z,23.50
2018-11-29T02:26:21.180Z,21.80
2018-11-29T02:28:48.899Z,23.57
2018-11-29T02:31:16.452Z,23.87
2018-11-29T02:33:43.977Z,22.10
2018-11-29T02:36:11.641Z,21.77
2018-11-29T02:38:39.208Z,23.13
2018-11-29T02:41:06.755Z,22.80
2018-11-29T02:43:34.874Z,23.70
2018-11-29T02:46:02.630Z,23.87
2018-11-29T02:48:30.289Z,22.17
2018-11-29T02:50:57.912Z,22.47
2018-11-29T02:53:25.437Z,22.30
2018-11-29T02:55:53.091Z,22.80
2018-11-29T02:58:20.589Z,22.30
2018-11-29T03:00:48.266Z,22.57
2018-11-29T03:03:15.818Z,24.07
2018-11-29T03:05:44.408Z,22.90
2018-11-29T03:08:12.012Z,23.07
2018-11-29T03:10:39.656Z,22.00
2018-11-29T03:13:07.187Z,24.67
2018-11-29T03:15:34.826Z,22.57
2018-11-29T03:18:02.436Z,21.73
2018-11-29T03:20:29.975Z,24.10
2018-11-29T03:22:57.526Z,22.53
2018-11-29T03:25:25.199Z,23.50
2018-11-29T03:27:52.742Z,22.73
2018-11-29T03:30:21.261Z,22.67
2018-11-29T03:32:48.799Z,23.60
2018-11-29T03:35:16.581Z,23.97
2018-11-29T03:37:44.243Z,21.87
2018-11-29T03:40:14.550Z,22.57
2018-11-29T03:42:42.143Z,20.90
2018-11-29T03:45:10.606Z,23.53
2018-11-29T03:47:38.407Z,22.83
2018-11-29T03:50:12.292Z,21.33
2018-11-29T03:52:39.873Z,23.10
2018-11-29T03:55:08.264Z,21.73
2018-11-29T03:57:36.740Z,23.70
2018-11-29T04:00:06.409Z,23.30
2018-11-29T04:02:34.009Z,24.00
2018-11-29T04:05:01.583Z,22.77
2018-11-29T04:07:29.295Z,24.27
2018-11-29T04:09:56.856Z,23.00
2018-11-29T04:12:24.421Z,24.17
2018-11-29T04:14:51.987Z,23.17
2018-11-29T04:17:19.490Z,21.93
2018-11-29T04:19:47.533Z,22.63
2018-11-29T04:22:15.162Z,23.70
2018-11-29T04:24:42.659Z,24.33
2018-11-29T04:27:11.118Z,24.67
2018-11-29T04:29:38.614Z,25.33
2018-11-29T04:32:06.512Z,24.70
2018-11-29T04:34:34.043Z,23.67
2018-11-29T04:37:01.587Z,24.03
2018-11-29T04:39:29.204Z,25.90
2018-11-29T04:41:56.725Z,22.67
2018-11-29T04:44:24.280Z,25.90
2018-11-29T04:46:52.416Z,22.50
2018-11-29T04:49:19.933Z,23.70
2018-11-29T04:51:47.459Z,25.93
2018-11-29T04:54:15.218Z,23.73
2018-11-29T04:56:42.788Z,23.87
2018-11-29T04:59:10.470Z,24.43
2018-11-29T05:01:38.315Z,26.13
2018-11-29T05:04:06.390Z,25.37
2018-11-29T05:06:33.944Z,24.70
2018-11-29T05:09:01.561Z,24.53
2018-11-29T05:11:29.107Z,25.77
2018-11-29T05:13:56.778Z,23.50
2018-11-29T05:16:24.440Z,24.17
2018-11-29T05:18:52.082Z,23.43
2018-11-29T05:21:20.481Z,24.70
2018-11-29T05:23:48.248Z,25.23
2018-11-29T05:26:15.986Z,24.33
2018-11-29T05:28:43.596Z,26.07
2018-11-29T05:31:12.186Z,23.90
2018-11-29T05:33:39.872Z,25.17
2018-11-29T05:36:08.021Z,26.50
2018-11-29T05:38:35.578Z,26.03
2018-11-29T05:41:03.132Z,25.33
2018-11-29T05:43:31.894Z,25.10
2018-11-29T05:45:59.572Z,24.93
2018-11-29T05:48:27.171Z,24.27
2018-11-29T05:50:54.806Z,27.40
2018-11-29T05:53:22.428Z,24.47
2018-11-29T05:55:49.959Z,24.90
2018-11-29T05:58:17.609Z,25.93
2018-11-29T06:00:45.241Z,26.60
2018-11-29T06:03:13.040Z,23.73
2018-11-29T06:05:42.645Z,24.50
2018-11-29T06:08:10.179Z,24.63
2018-11-29T06:10:38.412Z,25.23
2018-11-29T06:13:06.909Z,26.40
2018-11-29T06:15:34.618Z,25.13
2018-11-29T06:18:02.233Z,23.27
2018-11-29T06:20:29.941Z,24.37
2018-11-29T06:22:57.477Z,25.13
2018-11-29T06:28:04.835Z,27.30
2018-11-29T06:30:32.347Z,26.13
2018-11-29T06:32:59.942Z,35.20
2018-11-29T06:35:27.614Z,29.07
2018-11-29T06:37:56.126Z,27.90
2018-11-29T06:40:23.819Z,25.90
2018-11-29T06:42:51.662Z,25.33
2018-11-29T06:45:21.094Z,26.87
2018-11-29T06:47:49.914Z,24.67
2018-11-29T06:50:17.468Z,26.50
2018-11-29T06:52:46.129Z,25.57
2018-11-29T06:55:18.773Z,27.17
2018-11-29T06:57:46.310Z,24.33
2018-11-29T07:00:17.469Z,22.47
2018-11-29T07:02:45.028Z,26.73
2018-11-29T07:05:12.556Z,25.10
2018-11-29T07:07:40.147Z,23.97
2018-11-29T07:10:10.413Z,24.97
2018-11-29T07:12:39.092Z,24.27
2018-11-29T07:15:10.898Z,23.80
2018-11-29T07:17:39.647Z,24.70
2018-11-29T07:20:11.640Z,24.27
2018-11-29T07:22:39.385Z,25.00
2018-11-29T07:25:07.499Z,25.23
2018-11-29T07:27:35.556Z,24.30
2018-11-29T07:30:03.702Z,25.50
2018-11-29T07:32:31.256Z,23.80
2018-11-29T07:34:59.469Z,24.20
2018-11-29T07:37:27.053Z,24.50
2018-11-29T07:39:54.498Z,24.90
2018-11-29T07:42:22.112Z,25.17
2018-11-29T07:44:50.110Z,24.70
2018-11-29T07:47:17.647Z,24.97
2018-11-29T07:49:45.743Z,24.30
2018-11-29T07:52:13.252Z,26.20
2018-11-29T07:54:40.878Z,24.47
2018-11-29T07:57:08.333Z,23.17
2018-11-29T07:59:36.807Z,24.53
2018-11-29T08:02:04.637Z,23.00
2018-11-29T08:04:32.297Z,23.67
2018-11-29T08:06:59.756Z,22.63
2018-11-29T08:09:27.250Z,23.90
2018-11-29T08:11:54.756Z,23.07
2018-11-29T08:14:22.257Z,24.00
2018-11-29T08:16:49.811Z,24.30
2018-11-29T08:19:17.446Z,25.77
2018-11-29T08:21:44.929Z,22.47
2018-11-29T08:24:12.399Z,23.13
2018-11-29T08:26:41.096Z,23.30
2018-11-29T08:29:08.558Z,23.27
2018-11-29T08:31:36.044Z,23.90
2018-11-29T08:34:04.194Z,22.23
2018-11-29T08:36:31.656Z,22.77
2018-11-29T08:38:59.303Z,21.97
2018-11-29T08:41:26.966Z,22.77
2018-11-29T08:43:54.524Z,24.30
2018-11-29T08:46:22.052Z,25.53
2018-11-29T08:48:49.747Z,22.30
2018-11-29T08:51:17.178Z,23.53
2018-11-29T08:53:44.684Z,23.53
2018-11-29T08:56:12.217Z,24.30
2018-11-29T08:58:39.743Z,23.93
2018-11-29T09:01:08.213Z,23.40
2018-11-29T09:03:37.113Z,24.93
2018-11-29T09:06:05.235Z,24.23
2018-11-29T09:08:32.834Z,24.00
2018-11-29T09:11:02.565Z,24.93
2018-11-29T09:13:30.764Z,20.90
2018-11-29T09:15:58.906Z,24.40
2018-11-29T09:18:26.462Z,22.57
2018-11-29T09:20:54.951Z,23.27
2018-11-29T09:23:22.429Z,23.33
2018-11-29T09:25:49.919Z,25.00
2018-11-29T09:28:17.622Z,23.50
2018-11-29T09:30:45.090Z,24.97
2018-11-29T09:33:12.539Z,23.97
2018-11-29T09:35:40.612Z,25.00
2018-11-29T09:38:08.674Z,24.30
2018-11-29T09:40:36.187Z,24.30
2018-11-29T09:43:04.585Z,25.47
2018-11-29T09:45:32.254Z,24.90
2018-11-29T09:47:59.879Z,24.23
2018-11-29T09:50:27.348Z,25.53
2018-11-29T09:52:54.894Z,24.70
2018-11-29T09:55:22.509Z,26.80
2018-11-29T09:57:51.193Z,25.20
2018-11-29T10:00:27.129Z,24.07
2018-11-29T10:03:12.312Z,24.43
2018-11-29T10:05:40.920Z,23.00
2018-11-29T10:08:12.065Z,26.23
2018-11-29T10:10:37.172Z,24.53
2018-11-29T10:13:05.337Z,24.20
2018-11-29T10:15:32.750Z,24.60
2018-11-29T10:18:00.336Z,23.70
2018-11-29T10:20:27.800Z,24.23
2018-11-29T10:22:55.256Z,23.43
2018-11-29T10:25:22.759Z,22.70
2018-11-29T10:27:56.927Z,22.87
2018-11-29T10:30:28.376Z,23.20
2018-11-29T10:32:55.884Z,24.70
2018-11-29T10:35:23.375Z,23.33
2018-11-29T10:37:51.721Z,23.83
2018-11-29T10:40:19.211Z,21.80
2018-11-29T10:42:46.631Z,20.83
2018-11-29T10:45:15.749Z,22.50
2018-11-29T10:47:44.279Z,22.77
2018-11-29T10:50:13.060Z,22.60
2018-11-29T10:52:40.660Z,20.50
2018-11-29T10:55:14.908Z,22.10
2018-11-29T10:57:42.538Z,21.90
2018-11-29T11:00:32.341Z,23.80
2018-11-29T11:03:07.621Z,24.33
2018-11-29T11:05:35.656Z,22.30
2018-11-29T11:08:08.162Z,22.60
2018-11-29T11:10:30.755Z,24.40
2018-11-29T11:12:58.421Z,20.57
2018-11-29T11:15:25.901Z,23.90
2018-11-29T11:17:53.399Z,21.00
2018-11-29T11:20:20.886Z,21.37
2018-11-29T11:22:48.478Z,22.00
2018-11-29T11:25:16.011Z,25.60
2018-11-29T11:27:43.468Z,24.77
2018-11-29T11:30:15.609Z,22.60
2018-11-29T11:32:44.153Z,22.70
2018-11-29T11:35:11.872Z,21.63
2018-11-29T11:37:39.331Z,21.53
2018-11-29T11:40:08.706Z,21.47
2018-11-29T11:42:36.236Z,23.33
2018-11-29T11:45:04.596Z,20.00
2018-11-29T11:47:32.126Z,21.43
2018-11-29T11:49:59.669Z,21.17
2018-11-29T11:52:27.149Z,20.57
2018-11-29T11:54:54.680Z,20.30
2018-11-29T11:57:22.146Z,22.50
2018-11-29T11:59:49.656Z,21.77
2018-11-29T12:02:17.177Z,21.13
2018-11-29T12:04:48.584Z,19.90
2018-11-29T12:07:12.223Z,21.03
2018-11-29T12:09:39.715Z,20.73
2018-11-29T12:12:07.362Z,21.47
2018-11-29T12:14:35.040Z,20.30
2018-11-29T12:17:02.463Z,19.70
2018-11-29T12:19:29.933Z,21.83
2018-11-29T12:21:57.430Z,19.87
2018-11-29T12:24:25.071Z,21.20
2018-11-29T12:26:52.535Z,19.73
2018-11-29T12:29:20.076Z,22.00
2018-11-29T12:31:47.601Z,21.40
2018-11-29T12:34:15.092Z,21.03
2018-11-29T12:36:42.499Z,21.67
2018-11-29T12:39:10.121Z,20.03
2018-11-29T12:41:37.704Z,19.97
2018-11-29T12:44:05.292Z,19.00
2018-11-29T12:46:33.011Z,20.43
2018-11-29T12:49:00.643Z,17.87
2018-11-29T12:51:28.236Z,19.67
2018-11-29T12:53:55.826Z,19.60
2018-11-29T12:56:23.278Z,19.93
2018-11-29T12:58:50.752Z,21.30
2018-11-29T13:01:18.297Z,19.97
2018-11-29T13:03:46.260Z,21.00
2018-11-29T13:06:13.892Z,19.63
2018-11-29T13:08:41.390Z,20.67
2018-11-29T13:11:10.761Z,18.87
2018-11-29T13:13:36.402Z,19.23
2018-11-29T13:16:03.969Z,18.87
2018-11-29T13:18:31.423Z,19.23
2018-11-29T13:21:02.302Z,19.83
2018-11-29T13:23:29.889Z,18.37
2018-11-29T13:25:57.404Z,18.13
2018-11-29T13:28:24.873Z,17.90
2018-11-29T13:30:53.763Z,17.47
2018-11-29T13:33:21.205Z,17.07
2018-11-29T13:35:49.127Z,17.87
2018-11-29T13:38:16.911Z,17.53
2018-11-29T13:40:47.904Z,17.77
2018-11-29T13:43:15.554Z,16.47
2018-11-29T13:45:43.007Z,18.27
2018-11-29T13:48:11.891Z,18.37
2018-11-29T13:50:39.421Z,15.97
2018-11-29T13:53:07.082Z,15.03
2018-11-29T13:55:34.702Z,15.63
2018-11-29T13:58:02.157Z,17.03
2018-11-29T14:00:29.756Z,16.57
2018-11-29T14:03:01.256Z,16.70
2018-11-29T14:05:28.708Z,17.50
2018-11-29T14:07:56.143Z,16.53
2018-11-29T14:10:24.072Z,15.90
2018-11-29T14:12:52.712Z,17.07
2018-11-29T14:15:21.436Z,18.40
2018-11-29T14:17:49.073Z,19.10
2018-11-29T14:20:16.525Z,16.07
2018-11-29T14:22:44.097Z,16.30
2018-11-29T14:25:12.306Z,16.47
2018-11-29T14:27:40.647Z,16.17
2018-11-29T14:30:24.658Z,15.43
2018-11-29T14:32:52.803Z,17.87
2018-11-29T14:35:20.342Z,16.97
2018-11-29T14:37:47.737Z,15.37
2018-11-29T14:40:16.406Z,16.70
2018-11-29T14:42:43.810Z,16.13
2018-11-29T14:45:14.131Z,15.60
2018-11-29T14:47:42.221Z,16.80
2018-11-29T14:50:18.834Z,17.10
2018-11-29T14:52:46.250Z,15.23
2018-11-29T14:55:13.831Z,17.73
2018-11-29T14:57:41.332Z,17.60
2018-11-29T15:00:10.428Z,18.50
2018-11-29T15:02:37.906Z,15.17
2018-11-29T15:05:12.896Z,18.57
2018-11-29T15:07:40.374Z,17.20
2018-11-29T15:10:09.014Z,17.93
2018-11-29T15:12:36.577Z,16.00
2018-11-29T15:15:05.090Z,16.37
2018-11-29T15:17:32.687Z,16.13
2018-11-29T15:20:00.183Z,16.57
2018-11-29T15:22:27.796Z,16.37
2018-11-29T15:24:55.258Z,16.63
2018-11-29T15:27:22.771Z,16.23
2018-11-29T15:29:50.255Z,15.70
2018-11-29T15:32:17.827Z,15.40
2018-11-29T15:34:45.340Z,17.50
2018-11-29T15:37:12.875Z,18.03
2018-11-29T15:39:40.340Z,17.57
2018-11-29T15:42:07.890Z,16.87
2018-11-29T15:44:35.402Z,15.13
2018-11-29T15:47:02.883Z,16.07
2018-11-29T15:49:30.314Z,15.47
2018-11-29T15:51:57.777Z,16.63
2018-11-29T15:54:25.240Z,16.13
2018-11-29T15:56:53.059Z,16.40
2018-11-29T15:59:22.266Z,15.67
2018-11-29T16:01:49.867Z,15.00
2018-11-29T16:04:17.339Z,16.97
2018-11-29T16:06:44.815Z,15.77
2018-11-29T16:09:12.347Z,16.67
2018-11-29T16:11:39.860Z,15.40
2018-11-29T16:14:07.472Z,14.67
2018-11-29T16:16:34.909Z,15.90
2018-11-29T16:19:03.965Z,14.40
2018-11-29T16:21:30.004Z,15.73
2018-11-29T16:23:57.477Z,16.70
2018-11-29T16:26:25.069Z,16.77
2018-11-29T16:28:52.524Z,15.47
2018-11-29T16:31:20.072Z,16.90
2018-11-29T16:33:47.805Z,15.30
2018-11-29T16:36:15.411Z,16.00
2018-11-29T16:38:43.157Z,16.10
2018-11-29T16:41:10.692Z,17.20
2018-11-29T16:43:38.320Z,17.43
2018-11-29T16:46:06.089Z,19.23
2018-11-29T16:48:33.577Z,19.37
2018-11-29T16:51:02.358Z,19.47
2018-11-29T16:53:29.994Z,18.40
2018-11-29T16:55:57.499Z,20.77
2018-11-29T16:58:27.582Z,20.20
2018-11-29T17:00:55.422Z,18.33
2018-11-29T17:03:22.930Z,20.13
2018-11-29T17:05:50.555Z,21.10
2018-11-29T17:08:18.006Z,19.57
2018-11-29T17:10:45.559Z,18.27
2018-11-29T17:13:14.772Z,17.43
2018-11-29T17:15:42.504Z,19.30
2018-11-29T17:18:10.120Z,18.43
2018-11-29T17:20:38.043Z,18.90
2018-11-29T17:23:07.250Z,19.30
2018-11-29T17:25:35.053Z,17.80
2018-11-29T17:28:02.620Z,17.43
2018-11-29T17:30:30.277Z,17.20
2018-11-29T17:32:58.396Z,20.90
2018-11-29T17:35:25.959Z,19.77
2018-11-29T17:37:54.819Z,19.00
2018-11-29T17:40:22.387Z,17.73
2018-11-29T17:42:51.347Z,18.63
2018-11-29T17:45:20.131Z,20.97
2018-11-29T17:47:48.791Z,20.60
2018-11-29T17:50:18.128Z,17.33
2018-11-29T17:52:45.663Z,18.97
2018-11-29T17:55:13.198Z,17.87
2018-11-29T17:57:40.705Z,16.27
2018-11-29T18:00:12.920Z,17.03
2018-11-29T18:02:40.635Z,16.70
2018-11-29T18:05:08.401Z,17.30
2018-11-29T18:07:36.055Z,18.77
2018-11-29T18:10:04.705Z,17.77
2018-11-29T18:12:32.746Z,16.87
2018-11-29T18:15:00.382Z,17.70
2018-11-29T18:17:27.868Z,20.00
2018-11-29T18:19:55.426Z,32.40
2018-11-29T18:22:22.854Z,17.53
2018-11-29T18:24:50.335Z,25.80
2018-11-29T18:27:17.910Z,18.23
2018-11-29T18:29:45.341Z,24.70
2018-11-29T18:32:12.941Z,19.77
2018-11-29T18:34:40.441Z,21.50
2018-11-29T18:37:07.894Z,19.13
2018-11-29T18:39:35.399Z,20.70
2018-11-29T18:42:02.912Z,17.97
2018-11-29T18:44:30.471Z,17.40
2018-11-29T18:46:58.029Z,17.80
2018-11-29T18:49:25.504Z,21.60
2018-11-29T18:51:52.999Z,22.17
2018-11-29T18:54:20.502Z,20.30
2018-11-29T18:56:48.246Z,19.07
2018-11-29T18:59:15.829Z,20.67
2018-11-29T19:01:43.422Z,19.53
2018-11-29T19:04:11.090Z,22.67
2018-11-29T19:06:39.227Z,17.47
2018-11-29T19:09:08.349Z,18.07
2018-11-29T19:11:36.051Z,17.97
2018-11-29T19:14:03.596Z,16.33
2018-11-29T19:16:31.211Z,14.17
2018-11-29T19:18:59.294Z,14.53
2018-11-29T19:21:26.824Z,14.70
2018-11-29T19:23:54.511Z,15.07
2018-11-29T19:26:25.495Z,14.80
2018-11-29T19:28:54.660Z,15.40
2018-11-29T19:31:22.215Z,13.30
2018-11-29T19:33:49.754Z,16.07
2018-11-29T19:36:17.293Z,16.93
2018-11-29T19:38:44.860Z,19.40
2018-11-29T19:41:12.495Z,15.93
2018-11-29T19:43:43.219Z,14.00
2018-11-29T19:46:10.959Z,13.27
2018-11-29T19:48:38.584Z,15.80
2018-11-29T19:51:06.061Z,14.73
2018-11-29T19:53:33.767Z,14.77
2018-11-29T19:56:02.123Z,15.20
2018-11-29T19:58:29.894Z,13.30
2018-11-29T20:00:57.358Z,14.50
2018-11-29T20:03:24.865Z,12.70
2018-11-29T20:05:52.614Z,13.30
2018-11-29T20:08:20.064Z,13.97
2018-11-29T20:10:47.703Z,14.60
2018-11-29T20:13:15.584Z,14.97
2018-11-29T20:15:47.714Z,12.90
2018-11-29T20:18:15.331Z,12.60
2018-11-29T20:20:42.884Z,12.13
2018-11-29T20:23:11.024Z,13.20
2018-11-29T20:25:39.353Z,13.50
2018-11-29T20:28:07.970Z,12.87
2018-11-29T20:30:35.571Z,12.57
2018-11-29T20:33:03.107Z,13.30
2018-11-29T20:35:30.606Z,18.73
2018-11-29T20:37:58.090Z,16.17
2018-11-29T20:40:27.815Z,12.83
2018-11-29T20:42:56.578Z,12.43
2018-11-29T20:45:25.850Z,14.40
2018-11-29T20:47:53.346Z,11.67
2018-11-29T20:50:22.031Z,12.10
2018-11-29T20:52:50.758Z,11.83
2018-11-29T20:55:23.818Z,12.90
2018-11-29T20:57:51.276Z,11.80
2018-11-29T21:00:18.801Z,12.13
2018-11-29T21:02:46.689Z,19.50
2018-11-29T21:05:16.400Z,12.63
2018-11-29T21:07:45.578Z,15.37
2018-11-29T21:10:14.580Z,11.20
2018-11-29T21:12:42.109Z,12.20
2018-11-29T21:15:09.623Z,12.87
2018-11-29T21:17:37.126Z,12.47
2018-11-29T21:20:13.372Z,11.20
2018-11-29T21:22:41.668Z,12.37
2018-11-29T21:25:11.537Z,11.27
2018-11-29T21:27:39.083Z,14.77
2018-11-29T21:30:10.895Z,13.23
2018-11-29T21:32:39.465Z,13.83
2018-11-29T21:35:08.147Z,12.83
2018-11-29T21:37:35.689Z,18.97
2018-11-29T21:40:06.636Z,13.90
2018-11-29T21:42:34.215Z,12.93
2018-11-29T21:45:03.039Z,11.40
2018-11-29T21:47:31.419Z,11.80
2018-11-29T21:50:00.017Z,11.10
2018-11-29T21:52:27.090Z,11.67
2018-11-29T21:54:54.684Z,14.73
2018-11-29T21:57:22.257Z,11.17
2018-11-29T21:59:49.819Z,13.73
2018-11-29T22:02:17.594Z,12.20
2018-11-29T22:04:45.207Z,10.70
2018-11-29T22:07:13.359Z,12.57
2018-11-29T22:09:40.881Z,13.27
2018-11-29T22:12:08.853Z,12.40
2018-11-29T22:14:36.397Z,12.33
2018-11-29T22:17:04.291Z,10.80
2018-11-29T22:19:32.270Z,12.27
2018-11-29T22:22:00.907Z,13.40
2018-11-29T22:24:28.430Z,11.43
2018-11-29T22:26:56.029Z,12.17
2018-11-29T22:29:23.554Z,11.20
2018-11-29T22:31:51.313Z,12.03
2018-11-29T22:34:18.985Z,11.03
2018-11-29T22:36:46.588Z,11.23
2018-11-29T22:39:14.184Z,13.23
2018-11-29T22:41:41.738Z,12.70
2018-11-29T22:44:09.413Z,11.90
2018-11-29T22:46:37.175Z,13.10
2018-11-29T22:49:05.007Z,15.37
2018-11-29T22:51:33.750Z,13.90
2018-11-29T22:54:01.345Z,12.80
2018-11-29T22:56:28.863Z,12.27
2018-11-29T23:01:26.680Z,11.63
2018-11-29T23:03:54.768Z,12.37
2018-11-29T23:06:22.284Z,10.87
2018-11-29T23:08:49.901Z,12.50
2018-11-29T23:11:18.458Z,12.47
2018-11-29T23:13:46.390Z,12.17
2018-11-29T23:16:14.052Z,13.37
2018-11-29T23:18:41.727Z,11.30
2018-11-29T23:21:09.286Z,12.87
2018-11-29T23:23:36.870Z,10.50
2018-11-29T23:26:04.867Z,11.90
2018-11-29T23:28:32.457Z,12.30
2018-11-29T23:31:00.294Z,11.90
2018-11-29T23:33:28.576Z,15.37
2018-11-29T23:35:56.321Z,14.33
2018-11-29T23:38:23.910Z,13.17
2018-11-29T23:40:51.628Z,11.80
2018-11-29T23:43:19.304Z,12.30
2018-11-29T23:45:46.918Z,12.07
2018-11-29T23:48:14.432Z,13.47
2018-11-29T23:50:41.979Z,13.57
2018-11-29T23:53:09.551Z,14.00
2018-11-29T23:55:38.279Z,13.30
2018-11-29T23:58:05.739Z,12.27
